sensor_id;sensor_type;location;lat;lon;timestamp;P1;durP1;ratioP1;P2;durP2;ratioP2
68757;SDS011;55747;51.998;4.466;2022-07-23T00:02:22;7.13;;;3.43;;
68757;SDS011;55747;51.998;4.466;2022-07-23T00:04:47;4.63;;;3.30;;
68757;SDS011;55747;51.998;4.466;2022-07-23T00:07:13;6.97;;;3.37;;
68757;SDS011;55747;51.998;4.466;2022-07-23T00:09:38;7.78;;;3.40;;
68757;SDS011;55747;51.998;4.466;2022-07-23T00:12:04;5.23;;;3.20;;
68757;SDS011;55747;51.998;4.466;2022-07-23T00:14:30;8.27;;;3.47;;
68757;SDS011;55747;51.998;4.466;2022-07-23T00:16:55;5.37;;;3.50;;
68757;SDS011;55747;51.998;4.466;2022-07-23T00:19:20;5.28;;;3.70;;
68757;SDS011;55747;51.998;4.466;2022-07-23T00:21:46;6.95;;;3.97;;
68757;SDS011;55747;51.998;4.466;2022-07-23T00:24:11;6.32;;;4.20;;
68757;SDS011;55747;51.998;4.466;2022-07-23T00:26:36;4.38;;;3.97;;
68757;SDS011;55747;51.998;4.466;2022-07-23T00:29:02;8.77;;;4.20;;
68757;SDS011;55747;51.998;4.466;2022-07-23T00:31:27;5.68;;;3.75;;
68757;SDS011;55747;51.998;4.466;2022-07-23T00:33:52;5.53;;;4.13;;
68757;SDS011;55747;51.998;4.466;2022-07-23T00:36:21;10.52;;;4.22;;
68757;SDS011;55747;51.998;4.466;2022-07-23T00:38:48;7.88;;;4.00;;
68757;SDS011;55747;51.998;4.466;2022-07-23T00:41:13;5.80;;;4.30;;
68757;SDS011;55747;51.998;4.466;2022-07-23T00:43:39;8.25;;;4.03;;
68757;SDS011;55747;51.998;4.466;2022-07-23T00:46:04;5.25;;;3.90;;
68757;SDS011;55747;51.998;4.466;2022-07-23T00:48:29;7.57;;;4.20;;
68757;SDS011;55747;51.998;4.466;2022-07-23T00:50:55;9.00;;;4.00;;
68757;SDS011;55747;51.998;4.466;2022-07-23T00:53:20;4.88;;;4.05;;
68757;SDS011;55747;51.998;4.466;2022-07-23T00:55:46;6.63;;;4.20;;
68757;SDS011;55747;51.998;4.466;2022-07-23T00:58:12;6.93;;;4.13;;
68757;SDS011;55747;51.998;4.466;2022-07-23T01:00:37;7.82;;;4.00;;
68757;SDS011;55747;51.998;4.466;2022-07-23T01:03:03;7.30;;;4.20;;
68757;SDS011;55747;51.998;4.466;2022-07-23T01:05:28;8.70;;;4.60;;
68757;SDS011;55747;51.998;4.466;2022-07-23T01:07:53;7.07;;;3.78;;
68757;SDS011;55747;51.998;4.466;2022-07-23T01:10:19;6.47;;;4.00;;
68757;SDS011;55747;51.998;4.466;2022-07-23T01:12:59;5.47;;;3.78;;
68757;SDS011;55747;51.998;4.466;2022-07-23T01:15:25;7.32;;;4.22;;
68757;SDS011;55747;51.998;4.466;2022-07-23T01:17:51;7.38;;;3.80;;
68757;SDS011;55747;51.998;4.466;2022-07-23T01:20:16;6.75;;;4.03;;
68757;SDS011;55747;51.998;4.466;2022-07-23T01:22:43;6.63;;;4.00;;
68757;SDS011;55747;51.998;4.466;2022-07-23T01:25:08;9.90;;;3.85;;
68757;SDS011;55747;51.998;4.466;2022-07-23T01:27:34;5.90;;;3.85;;
68757;SDS011;55747;51.998;4.466;2022-07-23T01:30:00;6.22;;;4.20;;
68757;SDS011;55747;51.998;4.466;2022-07-23T01:32:26;6.32;;;4.30;;
68757;SDS011;55747;51.998;4.466;2022-07-23T01:34:51;6.63;;;4.68;;
68757;SDS011;55747;51.998;4.466;2022-07-23T01:37:17;7.28;;;5.13;;
68757;SDS011;55747;51.998;4.466;2022-07-23T01:39:42;9.18;;;5.75;;
68757;SDS011;55747;51.998;4.466;2022-07-23T01:42:07;12.93;;;5.77;;
68757;SDS011;55747;51.998;4.466;2022-07-23T01:44:32;7.50;;;5.37;;
68757;SDS011;55747;51.998;4.466;2022-07-23T01:46:58;7.95;;;5.55;;
68757;SDS011;55747;51.998;4.466;2022-07-23T01:49:23;7.80;;;4.72;;
68757;SDS011;55747;51.998;4.466;2022-07-23T01:51:48;6.25;;;4.97;;
68757;SDS011;55747;51.998;4.466;2022-07-23T01:54:30;8.07;;;5.00;;
68757;SDS011;55747;51.998;4.466;2022-07-23T01:56:59;5.13;;;4.28;;
68757;SDS011;55747;51.998;4.466;2022-07-23T01:59:25;9.30;;;5.30;;
68757;SDS011;55747;51.998;4.466;2022-07-23T02:01:51;8.02;;;5.50;;
68757;SDS011;55747;51.998;4.466;2022-07-23T02:04:17;8.13;;;5.80;;
68757;SDS011;55747;51.998;4.466;2022-07-23T02:06:43;11.10;;;5.55;;
68757;SDS011;55747;51.998;4.466;2022-07-23T02:09:08;10.27;;;6.38;;
68757;SDS011;55747;51.998;4.466;2022-07-23T02:11:33;6.63;;;5.80;;
68757;SDS011;55747;51.998;4.466;2022-07-23T02:13:59;8.03;;;5.70;;
68757;SDS011;55747;51.998;4.466;2022-07-23T02:16:24;9.93;;;5.40;;
68757;SDS011;55747;51.998;4.466;2022-07-23T02:18:49;7.80;;;5.37;;
68757;SDS011;55747;51.998;4.466;2022-07-23T02:21:14;9.40;;;5.60;;
68757;SDS011;55747;51.998;4.466;2022-07-23T02:23:40;6.37;;;5.30;;
68757;SDS011;55747;51.998;4.466;2022-07-23T02:26:05;8.47;;;5.30;;
68757;SDS011;55747;51.998;4.466;2022-07-23T02:28:30;9.80;;;5.38;;
68757;SDS011;55747;51.998;4.466;2022-07-23T02:30:56;9.65;;;4.88;;
68757;SDS011;55747;51.998;4.466;2022-07-23T02:33:21;8.45;;;5.20;;
68757;SDS011;55747;51.998;4.466;2022-07-23T02:35:47;5.93;;;4.68;;
68757;SDS011;55747;51.998;4.466;2022-07-23T02:38:12;6.97;;;5.00;;
68757;SDS011;55747;51.998;4.466;2022-07-23T02:40:37;9.67;;;5.20;;
68757;SDS011;55747;51.998;4.466;2022-07-23T02:43:02;6.27;;;4.97;;
68757;SDS011;55747;51.998;4.466;2022-07-23T02:45:28;9.32;;;5.18;;
68757;SDS011;55747;51.998;4.466;2022-07-23T02:47:53;8.70;;;5.25;;
68757;SDS011;55747;51.998;4.466;2022-07-23T02:50:18;6.17;;;4.73;;
68757;SDS011;55747;51.998;4.466;2022-07-23T02:52:44;8.27;;;5.60;;
68757;SDS011;55747;51.998;4.466;2022-07-23T02:55:09;11.75;;;5.47;;
68757;SDS011;55747;51.998;4.466;2022-07-23T02:57:35;10.68;;;5.65;;
68757;SDS011;55747;51.998;4.466;2022-07-23T03:00:01;11.32;;;5.80;;
68757;SDS011;55747;51.998;4.466;2022-07-23T03:02:27;12.00;;;5.80;;
68757;SDS011;55747;51.998;4.466;2022-07-23T03:04:52;8.97;;;5.40;;
68757;SDS011;55747;51.998;4.466;2022-07-23T03:07:18;9.77;;;6.00;;
68757;SDS011;55747;51.998;4.466;2022-07-23T03:09:43;9.65;;;6.20;;
68757;SDS011;55747;51.998;4.466;2022-07-23T03:12:08;10.83;;;6.20;;
68757;SDS011;55747;51.998;4.466;2022-07-23T03:14:34;7.30;;;6.22;;
68757;SDS011;55747;51.998;4.466;2022-07-23T03:16:59;9.52;;;6.63;;
68757;SDS011;55747;51.998;4.466;2022-07-23T03:19:25;10.73;;;6.60;;
68757;SDS011;55747;51.998;4.466;2022-07-23T03:21:51;11.93;;;6.75;;
68757;SDS011;55747;51.998;4.466;2022-07-23T03:24:16;11.52;;;7.10;;
68757;SDS011;55747;51.998;4.466;2022-07-23T03:26:43;10.35;;;6.93;;
68757;SDS011;55747;51.998;4.466;2022-07-23T03:29:08;11.82;;;7.05;;
68757;SDS011;55747;51.998;4.466;2022-07-23T03:31:34;8.70;;;6.47;;
68757;SDS011;55747;51.998;4.466;2022-07-23T03:33:59;12.13;;;6.57;;
68757;SDS011;55747;51.998;4.466;2022-07-23T03:36:25;12.00;;;6.50;;
68757;SDS011;55747;51.998;4.466;2022-07-23T03:38:50;10.05;;;6.32;;
68757;SDS011;55747;51.998;4.466;2022-07-23T03:41:16;8.13;;;5.72;;
68757;SDS011;55747;51.998;4.466;2022-07-23T03:43:41;10.15;;;5.93;;
68757;SDS011;55747;51.998;4.466;2022-07-23T03:46:07;8.40;;;5.73;;
68757;SDS011;55747;51.998;4.466;2022-07-23T03:48:34;8.70;;;5.43;;
68757;SDS011;55747;51.998;4.466;2022-07-23T03:51:00;7.68;;;5.75;;
68757;SDS011;55747;51.998;4.466;2022-07-23T03:53:25;7.38;;;5.65;;
68757;SDS011;55747;51.998;4.466;2022-07-23T03:55:50;6.80;;;5.47;;
68757;SDS011;55747;51.998;4.466;2022-07-23T03:58:16;7.37;;;5.43;;
68757;SDS011;55747;51.998;4.466;2022-07-23T04:00:41;7.70;;;5.85;;
68757;SDS011;55747;51.998;4.466;2022-07-23T04:03:06;10.97;;;6.97;;
68757;SDS011;55747;51.998;4.466;2022-07-23T04:05:32;13.80;;;7.27;;
68757;SDS011;55747;51.998;4.466;2022-07-23T04:07:57;11.30;;;7.33;;
68757;SDS011;55747;51.998;4.466;2022-07-23T04:10:22;10.05;;;7.45;;
68757;SDS011;55747;51.998;4.466;2022-07-23T04:12:47;10.47;;;7.07;;
68757;SDS011;55747;51.998;4.466;2022-07-23T04:15:13;12.83;;;7.20;;
68757;SDS011;55747;51.998;4.466;2022-07-23T04:17:38;12.40;;;6.88;;
68757;SDS011;55747;51.998;4.466;2022-07-23T04:20:03;9.13;;;6.55;;
68757;SDS011;55747;51.998;4.466;2022-07-23T04:22:29;11.75;;;6.95;;
68757;SDS011;55747;51.998;4.466;2022-07-23T04:24:55;10.43;;;6.28;;
68757;SDS011;55747;51.998;4.466;2022-07-23T04:27:20;9.63;;;6.40;;
68757;SDS011;55747;51.998;4.466;2022-07-23T04:29:45;9.80;;;5.97;;
68757;SDS011;55747;51.998;4.466;2022-07-23T04:32:10;6.63;;;5.47;;
68757;SDS011;55747;51.998;4.466;2022-07-23T04:34:36;14.83;;;5.93;;
68757;SDS011;55747;51.998;4.466;2022-07-23T04:37:01;6.87;;;4.87;;
68757;SDS011;55747;51.998;4.466;2022-07-23T04:39:26;7.65;;;5.63;;
68757;SDS011;55747;51.998;4.466;2022-07-23T04:41:52;5.77;;;4.83;;
68757;SDS011;55747;51.998;4.466;2022-07-23T04:44:17;6.27;;;4.80;;
68757;SDS011;55747;51.998;4.466;2022-07-23T04:46:42;6.80;;;4.75;;
68757;SDS011;55747;51.998;4.466;2022-07-23T04:49:07;13.27;;;5.13;;
68757;SDS011;55747;51.998;4.466;2022-07-23T04:51:33;8.43;;;4.50;;
68757;SDS011;55747;51.998;4.466;2022-07-23T04:53:58;7.30;;;4.67;;
68757;SDS011;55747;51.998;4.466;2022-07-23T04:56:23;5.63;;;4.37;;
68757;SDS011;55747;51.998;4.466;2022-07-23T04:58:49;9.30;;;4.88;;
68757;SDS011;55747;51.998;4.466;2022-07-23T05:01:14;11.97;;;4.90;;
68757;SDS011;55747;51.998;4.466;2022-07-23T05:03:39;7.57;;;5.20;;
68757;SDS011;55747;51.998;4.466;2022-07-23T05:06:04;9.93;;;5.30;;
68757;SDS011;55747;51.998;4.466;2022-07-23T05:08:30;6.90;;;5.07;;
68757;SDS011;55747;51.998;4.466;2022-07-23T05:10:55;6.53;;;5.07;;
68757;SDS011;55747;51.998;4.466;2022-07-23T05:13:21;6.70;;;4.40;;
68757;SDS011;55747;51.998;4.466;2022-07-23T05:15:46;5.35;;;4.30;;
68757;SDS011;55747;51.998;4.466;2022-07-23T05:18:12;5.10;;;4.20;;
68757;SDS011;55747;51.998;4.466;2022-07-23T05:20:37;6.75;;;4.18;;
68757;SDS011;55747;51.998;4.466;2022-07-23T05:23:03;7.55;;;4.13;;
68757;SDS011;55747;51.998;4.466;2022-07-23T05:25:28;7.03;;;4.90;;
68757;SDS011;55747;51.998;4.466;2022-07-23T05:27:54;5.10;;;4.40;;
68757;SDS011;55747;51.998;4.466;2022-07-23T05:30:19;8.03;;;5.03;;
68757;SDS011;55747;51.998;4.466;2022-07-23T05:32:45;8.25;;;4.68;;
68757;SDS011;55747;51.998;4.466;2022-07-23T05:35:10;7.60;;;4.80;;
68757;SDS011;55747;51.998;4.466;2022-07-23T05:37:36;6.28;;;3.90;;
68757;SDS011;55747;51.998;4.466;2022-07-23T05:40:02;7.10;;;4.00;;
68757;SDS011;55747;51.998;4.466;2022-07-23T05:42:31;6.15;;;4.07;;
68757;SDS011;55747;51.998;4.466;2022-07-23T05:44:56;5.30;;;3.63;;
68757;SDS011;55747;51.998;4.466;2022-07-23T05:47:22;6.77;;;3.70;;
68757;SDS011;55747;51.998;4.466;2022-07-23T05:49:47;5.88;;;3.30;;
68757;SDS011;55747;51.998;4.466;2022-07-23T05:52:12;4.97;;;2.90;;
68757;SDS011;55747;51.998;4.466;2022-07-23T05:54:38;7.77;;;3.07;;
68757;SDS011;55747;51.998;4.466;2022-07-23T05:57:03;5.13;;;3.27;;
68757;SDS011;55747;51.998;4.466;2022-07-23T05:59:29;4.40;;;2.65;;
68757;SDS011;55747;51.998;4.466;2022-07-23T06:01:55;6.97;;;3.20;;
68757;SDS011;55747;51.998;4.466;2022-07-23T06:04:20;4.55;;;2.70;;
68757;SDS011;55747;51.998;4.466;2022-07-23T06:06:46;4.45;;;2.60;;
68757;SDS011;55747;51.998;4.466;2022-07-23T06:09:11;4.77;;;2.50;;
68757;SDS011;55747;51.998;4.466;2022-07-23T06:11:38;5.03;;;2.38;;
68757;SDS011;55747;51.998;4.466;2022-07-23T06:14:04;4.72;;;2.10;;
68757;SDS011;55747;51.998;4.466;2022-07-23T06:16:29;3.43;;;2.00;;
68757;SDS011;55747;51.998;4.466;2022-07-23T06:18:54;5.90;;;2.05;;
68757;SDS011;55747;51.998;4.466;2022-07-23T06:21:20;4.60;;;2.10;;
68757;SDS011;55747;51.998;4.466;2022-07-23T06:23:45;4.25;;;1.73;;
68757;SDS011;55747;51.998;4.466;2022-07-23T06:26:10;4.63;;;1.60;;
68757;SDS011;55747;51.998;4.466;2022-07-23T06:28:36;3.80;;;1.80;;
68757;SDS011;55747;51.998;4.466;2022-07-23T06:31:01;2.95;;;1.70;;
68757;SDS011;55747;51.998;4.466;2022-07-23T06:33:26;4.45;;;1.83;;
68757;SDS011;55747;51.998;4.466;2022-07-23T06:35:52;5.80;;;1.70;;
68757;SDS011;55747;51.998;4.466;2022-07-23T06:38:17;5.13;;;2.03;;
68757;SDS011;55747;51.998;4.466;2022-07-23T06:40:42;3.40;;;1.55;;
68757;SDS011;55747;51.998;4.466;2022-07-23T06:43:08;4.82;;;2.03;;
68757;SDS011;55747;51.998;4.466;2022-07-23T06:45:34;4.32;;;1.80;;
68757;SDS011;55747;51.998;4.466;2022-07-23T06:47:59;6.10;;;1.40;;
68757;SDS011;55747;51.998;4.466;2022-07-23T06:50:27;3.20;;;1.30;;
68757;SDS011;55747;51.998;4.466;2022-07-23T06:52:52;2.55;;;1.30;;
68757;SDS011;55747;51.998;4.466;2022-07-23T06:55:17;2.73;;;1.50;;
68757;SDS011;55747;51.998;4.466;2022-07-23T06:57:43;4.35;;;1.50;;
68757;SDS011;55747;51.998;4.466;2022-07-23T07:00:08;5.17;;;1.63;;
68757;SDS011;55747;51.998;4.466;2022-07-23T07:02:34;7.15;;;2.00;;
68757;SDS011;55747;51.998;4.466;2022-07-23T07:04:59;3.73;;;1.60;;
68757;SDS011;55747;51.998;4.466;2022-07-23T07:07:25;3.97;;;1.60;;
68757;SDS011;55747;51.998;4.466;2022-07-23T07:09:51;2.58;;;1.50;;
68757;SDS011;55747;51.998;4.466;2022-07-23T07:12:16;4.20;;;1.87;;
68757;SDS011;55747;51.998;4.466;2022-07-23T07:14:42;3.45;;;1.92;;
68757;SDS011;55747;51.998;4.466;2022-07-23T07:17:07;3.80;;;1.60;;
68757;SDS011;55747;51.998;4.466;2022-07-23T07:19:32;3.60;;;1.80;;
68757;SDS011;55747;51.998;4.466;2022-07-23T07:21:57;4.13;;;2.00;;
68757;SDS011;55747;51.998;4.466;2022-07-23T07:24:23;4.27;;;1.97;;
68757;SDS011;55747;51.998;4.466;2022-07-23T07:26:48;6.63;;;2.30;;
68757;SDS011;55747;51.998;4.466;2022-07-23T07:29:13;4.53;;;2.20;;
68757;SDS011;55747;51.998;4.466;2022-07-23T07:31:39;4.60;;;2.00;;
68757;SDS011;55747;51.998;4.466;2022-07-23T07:34:04;3.20;;;1.80;;
68757;SDS011;55747;51.998;4.466;2022-07-23T07:36:29;3.47;;;1.67;;
68757;SDS011;55747;51.998;4.466;2022-07-23T07:38:55;3.67;;;1.90;;
68757;SDS011;55747;51.998;4.466;2022-07-23T07:41:20;7.33;;;2.20;;
68757;SDS011;55747;51.998;4.466;2022-07-23T07:43:48;3.92;;;2.00;;
68757;SDS011;55747;51.998;4.466;2022-07-23T07:46:14;4.47;;;1.70;;
68757;SDS011;55747;51.998;4.466;2022-07-23T07:48:40;6.17;;;2.00;;
68757;SDS011;55747;51.998;4.466;2022-07-23T07:51:05;3.23;;;1.53;;
68757;SDS011;55747;51.998;4.466;2022-07-23T07:53:30;5.47;;;1.80;;
68757;SDS011;55747;51.998;4.466;2022-07-23T07:55:56;4.03;;;1.60;;
68757;SDS011;55747;51.998;4.466;2022-07-23T07:58:21;4.55;;;1.85;;
68757;SDS011;55747;51.998;4.466;2022-07-23T08:00:47;4.78;;;1.73;;
68757;SDS011;55747;51.998;4.466;2022-07-23T08:03:12;3.22;;;1.70;;
68757;SDS011;55747;51.998;4.466;2022-07-23T08:05:37;4.33;;;1.70;;
68757;SDS011;55747;51.998;4.466;2022-07-23T08:08:03;4.63;;;1.98;;
68757;SDS011;55747;51.998;4.466;2022-07-23T08:10:28;5.13;;;1.77;;
68757;SDS011;55747;51.998;4.466;2022-07-23T08:12:55;3.15;;;1.90;;
68757;SDS011;55747;51.998;4.466;2022-07-23T08:15:24;3.67;;;1.65;;
68757;SDS011;55747;51.998;4.466;2022-07-23T08:17:51;3.17;;;1.48;;
68757;SDS011;55747;51.998;4.466;2022-07-23T08:20:17;4.15;;;1.60;;
68757;SDS011;55747;51.998;4.466;2022-07-23T08:25:15;3.65;;;1.52;;
68757;SDS011;55747;51.998;4.466;2022-07-23T08:27:44;4.65;;;1.65;;
68757;SDS011;55747;51.998;4.466;2022-07-23T08:30:10;3.85;;;1.90;;
68757;SDS011;55747;51.998;4.466;2022-07-23T08:35:28;5.53;;;2.60;;
68757;SDS011;55747;51.998;4.466;2022-07-23T08:37:58;3.90;;;2.50;;
68757;SDS011;55747;51.998;4.466;2022-07-23T08:40:25;3.95;;;2.28;;
68757;SDS011;55747;51.998;4.466;2022-07-23T08:42:52;4.95;;;2.80;;
68757;SDS011;55747;51.998;4.466;2022-07-23T08:45:19;5.35;;;2.53;;
68757;SDS011;55747;51.998;4.466;2022-07-23T08:47:47;3.85;;;2.30;;
68757;SDS011;55747;51.998;4.466;2022-07-23T08:50:14;5.22;;;2.10;;
68757;SDS011;55747;51.998;4.466;2022-07-23T08:52:40;3.90;;;2.17;;
68757;SDS011;55747;51.998;4.466;2022-07-23T08:55:06;4.50;;;1.92;;
68757;SDS011;55747;51.998;4.466;2022-07-23T08:57:32;4.72;;;2.10;;
68757;SDS011;55747;51.998;4.466;2022-07-23T08:59:58;4.23;;;1.93;;
68757;SDS011;55747;51.998;4.466;2022-07-23T09:02:23;4.70;;;2.00;;
68757;SDS011;55747;51.998;4.466;2022-07-23T09:04:48;5.13;;;1.73;;
68757;SDS011;55747;51.998;4.466;2022-07-23T09:07:14;6.07;;;2.00;;
68757;SDS011;55747;51.998;4.466;2022-07-23T09:09:40;5.63;;;2.17;;
68757;SDS011;55747;51.998;4.466;2022-07-23T09:12:06;5.97;;;2.28;;
68757;SDS011;55747;51.998;4.466;2022-07-23T09:14:42;5.13;;;2.63;;
68757;SDS011;55747;51.998;4.466;2022-07-23T09:17:15;6.40;;;2.70;;
68757;SDS011;55747;51.998;4.466;2022-07-23T09:19:42;5.63;;;2.53;;
68757;SDS011;55747;51.998;4.466;2022-07-23T09:22:18;5.65;;;2.28;;
68757;SDS011;55747;51.998;4.466;2022-07-23T09:30:14;4.55;;;2.10;;
68757;SDS011;55747;51.998;4.466;2022-07-23T09:32:40;4.63;;;2.40;;
68757;SDS011;55747;51.998;4.466;2022-07-23T09:35:06;8.90;;;2.40;;
68757;SDS011;55747;51.998;4.466;2022-07-23T09:37:32;4.90;;;2.30;;
68757;SDS011;55747;51.998;4.466;2022-07-23T09:40:10;3.83;;;1.97;;
68757;SDS011;55747;51.998;4.466;2022-07-23T09:42:38;4.32;;;2.35;;
68757;SDS011;55747;51.998;4.466;2022-07-23T09:45:03;5.13;;;2.60;;
68757;SDS011;55747;51.998;4.466;2022-07-23T09:47:35;4.72;;;2.20;;
68757;SDS011;55747;51.998;4.466;2022-07-23T09:50:05;4.73;;;2.23;;
68757;SDS011;55747;51.998;4.466;2022-07-23T09:52:42;3.08;;;2.25;;
68757;SDS011;55747;51.998;4.466;2022-07-23T09:55:10;3.22;;;2.40;;
68757;SDS011;55747;51.998;4.466;2022-07-23T09:57:36;4.43;;;2.00;;
68757;SDS011;55747;51.998;4.466;2022-07-23T10:00:03;3.97;;;2.40;;
68757;SDS011;55747;51.998;4.466;2022-07-23T10:02:31;5.47;;;2.30;;
68757;SDS011;55747;51.998;4.466;2022-07-23T10:04:57;4.28;;;2.30;;
68757;SDS011;55747;51.998;4.466;2022-07-23T10:07:26;3.50;;;2.03;;
68757;SDS011;55747;51.998;4.466;2022-07-23T10:09:52;3.53;;;2.08;;
68757;SDS011;55747;51.998;4.466;2022-07-23T10:12:19;5.63;;;2.35;;
68757;SDS011;55747;51.998;4.466;2022-07-23T10:14:57;5.70;;;1.90;;
68757;SDS011;55747;51.998;4.466;2022-07-23T10:17:23;4.40;;;2.30;;
68757;SDS011;55747;51.998;4.466;2022-07-23T10:19:49;4.27;;;2.00;;
68757;SDS011;55747;51.998;4.466;2022-07-23T10:22:15;5.50;;;2.03;;
68757;SDS011;55747;51.998;4.466;2022-07-23T10:24:50;3.67;;;2.30;;
68757;SDS011;55747;51.998;4.466;2022-07-23T10:27:39;3.53;;;1.90;;
68757;SDS011;55747;51.998;4.466;2022-07-23T10:30:25;4.22;;;2.08;;
68757;SDS011;55747;51.998;4.466;2022-07-23T10:35:55;3.33;;;1.90;;
68757;SDS011;55747;51.998;4.466;2022-07-23T10:41:03;5.57;;;2.42;;
68757;SDS011;55747;51.998;4.466;2022-07-23T10:43:30;4.30;;;2.08;;
68757;SDS011;55747;51.998;4.466;2022-07-23T10:45:56;7.03;;;2.00;;
68757;SDS011;55747;51.998;4.466;2022-07-23T10:49:25;3.40;;;1.55;;
68757;SDS011;55747;51.998;4.466;2022-07-23T10:57:13;4.50;;;1.60;;
68757;SDS011;55747;51.998;4.466;2022-07-23T11:00:13;4.03;;;1.63;;
68757;SDS011;55747;51.998;4.466;2022-07-23T11:02:36;3.17;;;1.40;;
68757;SDS011;55747;51.998;4.466;2022-07-23T11:05:05;1.98;;;1.50;;
68757;SDS011;55747;51.998;4.466;2022-07-23T11:07:31;2.45;;;1.50;;
68757;SDS011;55747;51.998;4.466;2022-07-23T11:09:57;4.00;;;1.77;;
68757;SDS011;55747;51.998;4.466;2022-07-23T11:17:22;3.15;;;1.65;;
68757;SDS011;55747;51.998;4.466;2022-07-23T11:22:36;2.85;;;1.42;;
68757;SDS011;55747;51.998;4.466;2022-07-23T11:25:05;3.05;;;1.63;;
68757;SDS011;55747;51.998;4.466;2022-07-23T11:27:43;2.42;;;1.50;;
68757;SDS011;55747;51.998;4.466;2022-07-23T11:30:10;2.78;;;1.52;;
68757;SDS011;55747;51.998;4.466;2022-07-23T11:35:37;4.25;;;1.60;;
68757;SDS011;55747;51.998;4.466;2022-07-23T11:40:38;2.30;;;1.40;;
68757;SDS011;55747;51.998;4.466;2022-07-23T11:43:05;1.73;;;1.30;;
68757;SDS011;55747;51.998;4.466;2022-07-23T11:45:34;1.60;;;1.40;;
68757;SDS011;55747;51.998;4.466;2022-07-23T11:48:04;3.03;;;1.70;;
68757;SDS011;55747;51.998;4.466;2022-07-23T11:50:31;3.30;;;1.50;;
68757;SDS011;55747;51.998;4.466;2022-07-23T11:52:57;3.08;;;1.55;;
68757;SDS011;55747;51.998;4.466;2022-07-23T11:55:22;2.45;;;1.75;;
68757;SDS011;55747;51.998;4.466;2022-07-23T11:57:50;2.78;;;1.50;;
68757;SDS011;55747;51.998;4.466;2022-07-23T12:00:17;2.25;;;1.40;;
68757;SDS011;55747;51.998;4.466;2022-07-23T12:02:45;2.45;;;1.73;;
68757;SDS011;55747;51.998;4.466;2022-07-23T12:05:17;3.95;;;1.90;;
68757;SDS011;55747;51.998;4.466;2022-07-23T12:07:45;2.83;;;1.35;;
68757;SDS011;55747;51.998;4.466;2022-07-23T12:10:19;2.95;;;1.60;;
68757;SDS011;55747;51.998;4.466;2022-07-23T12:12:48;2.45;;;1.40;;
68757;SDS011;55747;51.998;4.466;2022-07-23T12:15:19;1.95;;;1.45;;
68757;SDS011;55747;51.998;4.466;2022-07-23T12:17:47;1.88;;;1.40;;
68757;SDS011;55747;51.998;4.466;2022-07-23T12:20:15;3.13;;;1.70;;
68757;SDS011;55747;51.998;4.466;2022-07-23T12:22:46;2.47;;;1.30;;
68757;SDS011;55747;51.998;4.466;2022-07-23T12:25:14;3.53;;;1.40;;
68757;SDS011;55747;51.998;4.466;2022-07-23T12:27:41;2.95;;;2.08;;
68757;SDS011;55747;51.998;4.466;2022-07-23T12:32:42;2.25;;;1.52;;
68757;SDS011;55747;51.998;4.466;2022-07-23T12:35:10;2.15;;;1.58;;
68757;SDS011;55747;51.998;4.466;2022-07-23T12:37:37;3.78;;;1.70;;
68757;SDS011;55747;51.998;4.466;2022-07-23T12:42:59;3.55;;;2.15;;
68757;SDS011;55747;51.998;4.466;2022-07-23T12:45:27;2.60;;;2.00;;
68757;SDS011;55747;51.998;4.466;2022-07-23T12:47:56;4.30;;;2.38;;
68757;SDS011;55747;51.998;4.466;2022-07-23T12:53:25;3.88;;;2.40;;
68757;SDS011;55747;51.998;4.466;2022-07-23T12:56:00;4.97;;;2.53;;
68757;SDS011;55747;51.998;4.466;2022-07-23T12:58:39;5.90;;;2.80;;
68757;SDS011;55747;51.998;4.466;2022-07-23T13:03:57;3.72;;;2.60;;
68757;SDS011;55747;51.998;4.466;2022-07-23T13:06:33;7.40;;;2.42;;
68757;SDS011;55747;51.998;4.466;2022-07-23T13:09:00;4.18;;;2.65;;
68757;SDS011;55747;51.998;4.466;2022-07-23T13:11:27;8.50;;;2.72;;
68757;SDS011;55747;51.998;4.466;2022-07-23T13:13:53;5.22;;;2.45;;
68757;SDS011;55747;51.998;4.466;2022-07-23T13:16:18;4.00;;;2.60;;
68757;SDS011;55747;51.998;4.466;2022-07-23T13:18:44;3.65;;;2.47;;
68757;SDS011;55747;51.998;4.466;2022-07-23T13:21:09;6.13;;;2.35;;
68757;SDS011;55747;51.998;4.466;2022-07-23T13:23:35;4.50;;;2.57;;
68757;SDS011;55747;51.998;4.466;2022-07-23T13:26:01;4.50;;;2.30;;
68757;SDS011;55747;51.998;4.466;2022-07-23T13:28:26;5.87;;;2.50;;
68757;SDS011;55747;51.998;4.466;2022-07-23T13:30:52;5.32;;;2.90;;
68757;SDS011;55747;51.998;4.466;2022-07-23T13:33:18;5.57;;;2.67;;
68757;SDS011;55747;51.998;4.466;2022-07-23T13:35:45;3.92;;;2.80;;
68757;SDS011;55747;51.998;4.466;2022-07-23T13:38:11;4.78;;;2.30;;
68757;SDS011;55747;51.998;4.466;2022-07-23T13:40:37;4.65;;;2.55;;
68757;SDS011;55747;51.998;4.466;2022-07-23T13:43:04;4.43;;;2.75;;
68757;SDS011;55747;51.998;4.466;2022-07-23T13:45:31;4.88;;;2.97;;
68757;SDS011;55747;51.998;4.466;2022-07-23T13:47:57;4.10;;;2.40;;
68757;SDS011;55747;51.998;4.466;2022-07-23T13:50:22;5.38;;;1.65;;
68757;SDS011;55747;51.998;4.466;2022-07-23T13:52:48;4.95;;;2.03;;
68757;SDS011;55747;51.998;4.466;2022-07-23T13:55:14;6.20;;;2.15;;
68757;SDS011;55747;51.998;4.466;2022-07-23T13:57:39;4.37;;;2.30;;
68757;SDS011;55747;51.998;4.466;2022-07-23T14:00:05;7.60;;;2.30;;
68757;SDS011;55747;51.998;4.466;2022-07-23T14:02:33;3.42;;;1.95;;
68757;SDS011;55747;51.998;4.466;2022-07-23T14:04:59;5.38;;;2.70;;
68757;SDS011;55747;51.998;4.466;2022-07-23T14:07:25;5.10;;;2.50;;
68757;SDS011;55747;51.998;4.466;2022-07-23T14:09:50;5.33;;;2.60;;
68757;SDS011;55747;51.998;4.466;2022-07-23T14:12:15;4.07;;;2.30;;
68757;SDS011;55747;51.998;4.466;2022-07-23T14:14:41;4.25;;;2.33;;
68757;SDS011;55747;51.998;4.466;2022-07-23T14:17:08;3.38;;;2.20;;
68757;SDS011;55747;51.998;4.466;2022-07-23T14:19:33;4.57;;;2.30;;
68757;SDS011;55747;51.998;4.466;2022-07-23T14:21:59;6.05;;;2.67;;
68757;SDS011;55747;51.998;4.466;2022-07-23T14:24:24;5.80;;;2.30;;
68757;SDS011;55747;51.998;4.466;2022-07-23T14:26:50;4.87;;;2.70;;
68757;SDS011;55747;51.998;4.466;2022-07-23T14:29:15;3.90;;;2.50;;
68757;SDS011;55747;51.998;4.466;2022-07-23T14:31:40;5.37;;;2.60;;
68757;SDS011;55747;51.998;4.466;2022-07-23T14:34:06;5.40;;;2.50;;
68757;SDS011;55747;51.998;4.466;2022-07-23T14:36:31;6.15;;;2.70;;
68757;SDS011;55747;51.998;4.466;2022-07-23T14:38:56;4.20;;;2.40;;
68757;SDS011;55747;51.998;4.466;2022-07-23T14:41:21;7.33;;;2.60;;
68757;SDS011;55747;51.998;4.466;2022-07-23T14:43:47;3.67;;;1.87;;
68757;SDS011;55747;51.998;4.466;2022-07-23T14:46:12;6.13;;;2.30;;
68757;SDS011;55747;51.998;4.466;2022-07-23T14:48:38;4.75;;;1.85;;
68757;SDS011;55747;51.998;4.466;2022-07-23T14:51:03;5.90;;;1.92;;
68757;SDS011;55747;51.998;4.466;2022-07-23T14:53:29;4.53;;;2.80;;
68757;SDS011;55747;51.998;4.466;2022-07-23T14:55:55;3.58;;;2.28;;
68757;SDS011;55747;51.998;4.466;2022-07-23T14:58:21;4.82;;;2.72;;
68757;SDS011;55747;51.998;4.466;2022-07-23T15:00:50;4.63;;;2.75;;
68757;SDS011;55747;51.998;4.466;2022-07-23T15:03:15;4.18;;;3.03;;
68757;SDS011;55747;51.998;4.466;2022-07-23T15:05:41;5.40;;;2.42;;
68757;SDS011;55747;51.998;4.466;2022-07-23T15:08:06;4.90;;;2.80;;
68757;SDS011;55747;51.998;4.466;2022-07-23T15:10:32;5.05;;;2.50;;
68757;SDS011;55747;51.998;4.466;2022-07-23T15:12:57;4.03;;;2.10;;
68757;SDS011;55747;51.998;4.466;2022-07-23T15:15:22;4.60;;;1.70;;
68757;SDS011;55747;51.998;4.466;2022-07-23T15:17:48;4.43;;;2.17;;
68757;SDS011;55747;51.998;4.466;2022-07-23T15:20:13;5.23;;;2.27;;
68757;SDS011;55747;51.998;4.466;2022-07-23T15:22:39;6.32;;;2.55;;
68757;SDS011;55747;51.998;4.466;2022-07-23T15:25:04;4.55;;;2.58;;
68757;SDS011;55747;51.998;4.466;2022-07-23T15:27:30;3.72;;;2.20;;
68757;SDS011;55747;51.998;4.466;2022-07-23T15:29:55;4.47;;;2.67;;